Time;durP1;ratioP1;P1;durP2;ratioP2;P2;SDS_P1;SDS_P2;PMS_P1;PMS_P2;Temp;Humidity;BMP_temperature;BMP_pressure;BME280_temperature;BME280_humidity;BME280_pressure;Samples;Min_cycle;Max_cycle;Signal;HPM_P1;HPM_P2
2021/11/10 00:00:21;;;;;;;6.73;4.77;;;;;;;3.87;83.31;101884.91;5033720;28;20555;-71
2021/11/10 00:02:48;;;;;;;5.77;4.63;;;;;;;3.88;83.08;101880.50;5027732;28;20590;-74
2021/11/10 00:05:16;;;;;;;5.93;4.60;;;;;;;3.87;83.41;101871.72;5024707;28;20221;-74
2021/11/10 00:07:43;;;;;;;9.93;5.70;;;;;;;3.87;83.69;101881.41;5027592;28;20682;-72
2021/11/10 00:10:10;;;;;;;11.93;5.17;;;;;;;3.84;83.38;101864.75;5027644;28;20293;-73
2021/11/10 00:12:38;;;;;;;7.43;4.90;;;;;;;3.84;83.88;101864.75;5026734;28;20233;-71
2021/11/10 00:15:06;;;;;;;12.97;5.80;;;;;;;3.84;83.67;101870.00;5023239;28;20209;-72
2021/11/10 00:17:34;;;;;;;11.47;5.90;;;;;;;3.83;83.60;101867.41;5032433;28;20212;-72
2021/11/10 00:20:00;;;;;;;10.97;7.20;;;;;;;3.81;83.46;101867.41;5027512;28;20214;-73
2021/11/10 00:22:27;;;;;;;10.10;6.73;;;;;;;3.80;83.60;101868.31;5026399;28;20225;-73
2021/11/10 00:24:54;;;;;;;13.47;6.70;;;;;;;3.80;83.67;101865.69;5024383;28;20203;-73
2021/11/10 00:27:22;;;;;;;9.97;6.90;;;;;;;3.81;84.46;101856.00;5020127;28;20206;-73
2021/11/10 00:29:49;;;;;;;11.83;7.50;;;;;;;3.82;84.19;101855.13;5019601;28;20602;-73
2021/11/10 00:32:15;;;;;;;13.93;7.17;;;;;;;3.82;84.51;101842.81;5023594;28;20233;-73
2021/11/10 00:34:44;;;;;;;9.73;6.60;;;;;;;3.82;84.94;101845.44;5025584;28;20232;-73
2021/11/10 00:37:11;;;;;;;15.17;7.00;;;;;;;3.84;84.41;101841.03;5027126;28;20209;-74
2021/11/10 00:39:37;;;;;;;13.73;7.17;;;;;;;3.86;84.79;101838.38;5031438;28;20293;-73
2021/11/10 00:42:04;;;;;;;10.80;6.33;;;;;;;3.88;84.64;101846.25;5029691;28;20237;-73
2021/11/10 00:44:31;;;;;;;10.07;6.17;;;;;;;3.88;84.68;101846.25;5029668;28;20206;-73
2021/11/10 00:46:57;;;;;;;11.10;6.30;;;;;;;3.89;85.07;101837.44;5027860;28;20206;-71
2021/11/10 00:49:24;;;;;;;10.20;6.77;;;;;;;3.88;85.52;101828.66;5035495;28;20576;-73
2021/11/10 00:51:52;;;;;;;12.30;6.70;;;;;;;3.88;85.79;101833.94;5029941;28;20739;-73
2021/11/10 00:54:18;;;;;;;11.00;6.00;;;;;;;3.88;85.86;101825.16;5035186;28;20223;-73
2021/11/10 00:56:45;;;;;;;8.53;5.63;;;;;;;3.88;85.71;101835.72;5029530;28;20209;-72
2021/11/10 00:59:11;;;;;;;7.37;4.97;;;;;;;3.87;85.86;101829.56;5028331;28;20202;-73
2021/11/10 01:01:38;;;;;;;8.77;5.23;;;;;;;3.82;85.72;101834.03;5031846;28;20570;-73
2021/11/10 01:04:05;;;;;;;8.80;4.83;;;;;;;3.75;85.02;101830.66;5028608;28;20209;-73
2021/11/10 01:06:32;;;;;;;9.73;5.33;;;;;;;3.70;84.95;101831.59;5036896;28;20209;-73
2021/11/10 01:08:59;;;;;;;10.70;5.07;;;;;;;3.66;85.33;101814.09;5036331;28;20245;-72
2021/11/10 01:11:26;;;;;;;9.77;5.40;;;;;;;3.62;84.88;101815.03;5031642;28;20601;-73
2021/11/10 01:13:52;;;;;;;9.73;6.67;;;;;;;3.59;85.92;101812.44;5037425;28;20611;-73
2021/11/10 01:16:19;;;;;;;13.33;5.93;;;;;;;3.58;85.72;101805.47;5033011;28;20209;-73
2021/11/10 01:18:46;;;;;;;9.50;5.23;;;;;;;3.57;85.77;101799.34;5033964;28;20340;-73
2021/11/10 01:21:12;;;;;;;8.43;5.97;;;;;;;3.57;86.03;101795.84;5034241;28;20221;-73
2021/11/10 01:23:39;;;;;;;7.43;5.23;;;;;;;3.58;85.90;101806.34;5034873;28;20597;-73
2021/11/10 01:26:07;;;;;;;9.90;5.30;;;;;;;3.59;85.87;101804.56;5032912;28;20210;-71
2021/11/10 01:28:33;;;;;;;11.00;5.23;;;;;;;3.59;86.46;101788.75;5034084;28;20221;-74
2021/11/10 01:31:00;;;;;;;20.80;5.37;;;;;;;3.59;85.79;101794.00;5033963;28;20313;-73
2021/11/10 01:33:26;;;;;;;6.13;4.37;;;;;;;3.54;85.48;101786.22;5033166;28;20586;-73
2021/11/10 01:35:53;;;;;;;10.63;4.53;;;;;;;3.47;85.72;101795.09;5035976;28;20290;-74
2021/11/10 01:38:20;;;;;;;6.33;3.90;;;;;;;3.40;85.18;101790.84;5035550;28;20237;-74
2021/11/10 01:40:46;;;;;;;7.37;4.70;;;;;;;3.34;86.25;101786.53;5032643;28;20202;-73
2021/11/10 01:43:15;;;;;;;7.63;4.70;;;;;;;3.31;85.89;101791.84;5030773;28;20588;-71
2021/11/10 01:45:42;;;;;;;7.87;4.57;;;;;;;3.28;86.09;101783.09;5033093;28;20679;-73
2021/11/10 01:48:09;;;;;;;8.50;4.43;;;;;;;3.28;86.12;101781.34;5030775;28;20206;-73
2021/11/10 01:50:35;;;;;;;6.87;4.17;;;;;;;3.29;86.17;101777.81;5033254;28;20211;-73
2021/11/10 01:53:02;;;;;;;7.63;4.87;;;;;;;3.31;86.25;101776.03;5031042;28;20702;-73
2021/11/10 01:55:29;;;;;;;8.93;4.80;;;;;;;3.32;86.74;101775.13;5032261;28;20213;-72
2021/11/10 01:57:56;;;;;;;9.77;5.43;;;;;;;3.34;86.45;101777.75;5032668;28;20701;-73
2021/11/10 02:00:27;;;;;;;12.20;5.10;;;;;;;3.34;86.22;101776.00;5033317;28;20222;-74
2021/11/10 02:02:56;;;;;;;8.90;4.80;;;;;;;3.34;86.42;101773.34;5033287;28;20664;-73
2021/11/10 02:05:23;;;;;;;8.87;4.30;;;;;;;3.35;86.01;101772.47;5032548;28;20208;-73
2021/11/10 02:07:51;;;;;;;6.17;4.50;;;;;;;3.35;86.03;101764.56;5040036;28;20212;-73
2021/11/10 02:10:24;;;;;;;7.17;4.80;;;;;;;3.35;86.93;101756.66;5039648;28;20216;-73
2021/11/10 02:12:50;;;;;;;6.93;4.90;;;;;;;3.35;86.52;101751.41;5026895;28;20249;-73
2021/11/10 02:15:19;;;;;;;8.53;4.80;;;;;;;3.34;86.80;101760.19;5045754;28;20316;-73
2021/11/10 02:17:49;;;;;;;6.73;4.63;;;;;;;3.33;86.28;101753.19;5038918;28;20606;-74
2021/11/10 02:20:16;;;;;;;7.27;4.43;;;;;;;3.30;87.10;101750.59;5042935;28;20811;-74
2021/11/10 02:22:45;;;;;;;8.53;4.17;;;;;;;3.29;86.80;101756.75;5032053;28;20615;-73
2021/11/10 02:25:13;;;;;;;6.90;3.97;;;;;;;3.28;87.01;101747.13;5032532;28;20584;-73
2021/11/10 02:27:40;;;;;;;8.10;4.43;;;;;;;3.25;87.06;101739.25;5033793;28;20663;-73
2021/11/10 02:30:11;;;;;;;7.03;4.63;;;;;;;3.23;86.78;101743.69;5035888;28;20206;-74
2021/11/10 02:32:39;;;;;;;8.80;5.10;;;;;;;3.21;86.50;101736.72;5032684;28;20237;-73
2021/11/10 02:35:07;;;;;;;7.80;4.37;;;;;;;3.21;86.54;101748.13;5032262;28;20252;-72
2021/11/10 02:37:35;;;;;;;8.47;4.47;;;;;;;3.19;87.00;101744.63;5029456;28;20219;-73
2021/11/10 02:40:04;;;;;;;7.83;4.30;;;;;;;3.18;87.08;101749.94;5030635;28;20256;-73
2021/11/10 02:42:30;;;;;;;9.77;4.83;;;;;;;3.17;86.66;101751.69;5032234;28;20242;-73
2021/11/10 02:44:57;;;;;;;5.70;4.13;;;;;;;3.18;86.40;101737.63;5032143;28;20217;-73
2021/11/10 02:47:24;;;;;;;5.53;4.37;;;;;;;3.18;87.33;101736.75;5034571;28;20208;-73
2021/11/10 02:49:50;;;;;;;6.00;3.87;;;;;;;3.17;87.20;101735.91;5041245;28;20209;-71
2021/11/10 02:52:19;;;;;;;8.60;4.00;;;;;;;3.16;87.06;101723.63;5031793;28;20234;-73
2021/11/10 02:54:48;;;;;;;6.33;3.73;;;;;;;3.16;86.94;101717.50;5031773;28;20233;-73
2021/11/10 02:57:16;;;;;;;9.13;4.97;;;;;;;3.14;86.39;101725.41;5031056;28;20687;-73
2021/11/10 02:59:43;;;;;;;8.27;4.27;;;;;;;3.13;86.58;101728.94;5040533;28;20579;-73
2021/11/10 03:02:09;;;;;;;8.83;4.47;;;;;;;3.11;87.04;101734.22;5031245;28;20272;-74
2021/11/10 03:04:41;;;;;;;10.17;4.43;;;;;;;3.10;86.85;101735.09;5036137;28;20233;-73
2021/11/10 03:07:08;;;;;;;5.70;4.20;;;;;;;3.08;87.00;101729.00;5030068;28;20213;-71
2021/11/10 03:09:36;;;;;;;6.27;3.87;;;;;;;3.08;86.41;101736.88;5034816;28;20216;-73
2021/11/10 03:12:05;;;;;;;5.93;4.10;;;;;;;3.07;86.29;101740.41;5031465;28;20232;-73
2021/11/10 03:14:35;;;;;;;7.10;3.50;;;;;;;3.04;86.80;101729.97;5041233;28;20237;-73
2021/11/10 03:17:04;;;;;;;6.53;3.60;;;;;;;3.00;87.00;101737.91;5041748;28;20205;-73
2021/11/10 03:19:31;;;;;;;4.43;3.77;;;;;;;2.96;86.58;101738.84;5032572;28;20210;-72
2021/11/10 03:21:57;;;;;;;7.47;4.20;;;;;;;2.89;86.63;101745.94;5035581;28;20225;-73
2021/11/10 03:24:24;;;;;;;6.17;4.03;;;;;;;2.84;86.42;101747.78;5030916;28;20913;-73
2021/11/10 03:26:50;;;;;;;5.87;3.43;;;;;;;2.82;86.27;101754.84;5034453;28;20660;-73
2021/11/10 03:29:17;;;;;;;5.43;3.97;;;;;;;2.79;85.80;101749.63;5030467;28;20202;-73
2021/11/10 03:31:45;;;;;;;6.13;4.30;;;;;;;2.78;86.13;101755.75;5031834;28;20237;-73
2021/11/10 03:34:12;;;;;;;8.57;5.10;;;;;;;2.78;86.08;101761.03;5036474;28;20240;-73
2021/11/10 03:36:40;;;;;;;7.63;4.93;;;;;;;2.75;85.71;101756.66;5024461;28;20218;-73
2021/11/10 03:39:09;;;;;;;8.33;5.03;;;;;;;2.73;85.79;101761.06;5028397;28;20660;-73
2021/11/10 03:41:35;;;;;;;7.47;4.73;;;;;;;2.71;85.91;101757.59;5055455;22;20233;-70
2021/11/10 03:44:02;;;;;;;5.70;3.60;;;;;;;2.68;86.04;101760.28;5024431;28;20199;-70
2021/11/10 03:46:29;;;;;;;6.67;3.97;;;;;;;2.64;86.13;101760.34;5024121;28;20210;-68
2021/11/10 03:48:57;;;;;;;6.50;4.20;;;;;;;2.57;85.34;101764.81;5023007;28;20203;-70
2021/11/10 03:51:23;;;;;;;9.50;4.83;;;;;;;2.54;85.49;101758.69;5012121;28;20210;-70
2021/11/10 03:53:50;;;;;;;8.00;4.43;;;;;;;2.50;86.32;101757.91;5019986;28;20537;-70
2021/11/10 03:56:17;;;;;;;7.23;4.50;;;;;;;2.48;85.85;101757.03;5018273;28;20477;-70
2021/11/10 03:58:43;;;;;;;6.97;4.37;;;;;;;2.47;85.57;101759.69;5015908;28;20203;-70
2021/11/10 04:01:10;;;;;;;7.57;4.53;;;;;;;2.46;85.97;101761.44;5026682;28;20206;-70
2021/11/10 04:03:37;;;;;;;7.23;4.00;;;;;;;2.45;85.77;101762.34;5026478;28;20301;-70
2021/11/10 04:06:05;;;;;;;5.37;3.90;;;;;;;2.44;85.57;101764.09;5025749;28;20256;-69
2021/11/10 04:08:32;;;;;;;5.87;3.97;;;;;;;2.43;86.16;101764.09;5028260;28;20213;-70
2021/11/10 04:11:00;;;;;;;6.47;5.33;;;;;;;2.41;85.64;101756.25;5011439;28;20206;-70
2021/11/10 04:13:27;;;;;;;5.13;3.80;;;;;;;2.41;85.89;101760.63;5022486;28;20325;-70
2021/11/10 04:15:53;;;;;;;8.17;3.83;;;;;;;2.40;85.84;101764.13;5025306;28;20202;-70
2021/11/10 04:18:20;;;;;;;4.97;3.20;;;;;;;2.38;86.29;101765.91;5030244;28;20248;-70
2021/11/10 04:20:47;;;;;;;6.57;3.33;;;;;;;2.32;85.69;101761.63;5012311;28;20211;-70
2021/11/10 04:23:15;;;;;;;5.37;3.03;;;;;;;2.28;85.90;101762.53;5017119;28;20703;-70
2021/11/10 04:25:42;;;;;;;3.83;3.30;;;;;;;2.26;85.49;101752.94;5024579;28;20234;-70
2021/11/10 04:28:10;;;;;;;5.27;3.30;;;;;;;2.23;85.50;101758.22;5025329;28;20198;-70
2021/11/10 04:30:37;;;;;;;4.80;3.23;;;;;;;2.20;85.94;101740.72;5025463;28;20683;-69
2021/11/10 04:33:04;;;;;;;4.30;3.20;;;;;;;2.17;85.76;101740.75;5011623;28;20231;-68
2021/11/10 04:35:31;;;;;;;4.10;3.07;;;;;;;2.15;85.83;101744.31;5026165;28;20210;-71
2021/11/10 04:37:57;;;;;;;6.13;3.80;;;;;;;2.11;85.33;101740.84;5017309;28;20206;-70
2021/11/10 04:40:25;;;;;;;4.87;3.73;;;;;;;2.08;85.41;101736.47;5014247;28;20580;-69
2021/11/10 04:42:52;;;;;;;5.27;3.00;;;;;;;2.07;85.46;101720.72;5029349;28;20234;-69
2021/11/10 04:45:22;;;;;;;5.33;3.33;;;;;;;2.04;85.76;101734.75;5020399;28;20234;-69
2021/11/10 04:47:49;;;;;;;7.00;3.70;;;;;;;2.03;85.82;101735.66;5030115;28;20237;-70
2021/11/10 04:50:16;;;;;;;6.00;3.80;;;;;;;1.99;85.16;101738.31;5026828;28;20234;-69
2021/11/10 04:52:42;;;;;;;4.57;3.10;;;;;;;1.94;85.17;101740.16;5014006;28;20217;-68
2021/11/10 04:55:10;;;;;;;5.43;3.07;;;;;;;1.90;85.28;101741.06;5028079;28;20202;-70
2021/11/10 04:57:38;;;;;;;4.80;3.20;;;;;;;1.88;85.74;101737.56;5024425;28;20677;-70
2021/11/10 05:00:06;;;;;;;5.40;3.10;;;;;;;1.88;85.56;101738.44;5021323;28;20210;-70
2021/11/10 05:02:33;;;;;;;6.30;3.43;;;;;;;1.88;85.85;101733.19;5024650;28;20237;-70
2021/11/10 05:04:59;;;;;;;6.73;3.60;;;;;;;1.88;85.53;101730.56;5016379;28;20235;-70
2021/11/10 05:07:26;;;;;;;5.60;3.73;;;;;;;1.88;85.47;101729.69;5026423;28;20668;-70
2021/11/10 05:09:54;;;;;;;6.77;3.47;;;;;;;1.86;86.08;101727.09;5016497;28;20672;-69
2021/11/10 05:12:21;;;;;;;8.20;4.33;;;;;;;1.87;85.95;101730.56;5017460;28;20281;-69
2021/11/10 05:14:52;;;;;;;5.53;3.43;;;;;;;1.85;86.07;101717.47;5020488;28;20206;-67
2021/11/10 05:17:19;;;;;;;4.70;3.07;;;;;;;1.84;85.73;101720.97;5011369;28;20207;-70
2021/11/10 05:19:46;;;;;;;4.13;3.10;;;;;;;1.83;86.07;101715.72;5017234;28;20212;-69
2021/11/10 05:22:13;;;;;;;6.37;3.47;;;;;;;1.82;86.37;101716.63;5014677;28;20265;-69
2021/11/10 05:24:39;;;;;;;5.20;2.83;;;;;;;1.82;85.70;101712.22;5015438;28;20594;-70
2021/11/10 05:27:07;;;;;;;4.07;2.77;;;;;;;1.82;86.04;101712.22;5006681;28;20207;-69
2021/11/10 05:29:34;;;;;;;6.37;3.70;;;;;;;1.81;86.00;101704.38;5013903;28;20206;-71
2021/11/10 05:32:02;;;;;;;5.37;3.10;;;;;;;1.79;86.03;101698.28;5022332;28;20234;-69
2021/11/10 05:34:29;;;;;;;6.27;4.00;;;;;;;1.77;85.85;101698.31;5018532;28;20291;-70
2021/11/10 05:36:55;;;;;;;5.53;3.87;;;;;;;1.76;86.24;101704.44;5019181;28;20206;-69
2021/11/10 05:39:22;;;;;;;9.43;4.57;;;;;;;1.76;86.25;101699.19;5020838;28;20210;-68
2021/11/10 05:41:49;;;;;;;8.07;4.07;;;;;;;1.75;86.02;101710.56;5018892;28;20230;-67
2021/11/10 05:44:16;;;;;;;8.47;4.93;;;;;;;1.74;86.53;101703.59;5019361;28;20198;-68
2021/11/10 05:46:43;;;;;;;36.90;16.23;;;;;;;1.74;86.44;101708.84;5016130;28;20211;-69
2021/11/10 05:49:11;;;;;;;38.43;15.93;;;;;;;1.73;86.23;101702.72;5017026;28;20199;-69
2021/11/10 05:51:37;;;;;;;27.70;13.57;;;;;;;1.73;86.67;101700.09;5021305;28;20228;-70
2021/11/10 05:54:04;;;;;;;35.17;15.03;;;;;;;1.73;86.37;101702.72;5016218;28;20684;-70
2021/11/10 05:56:33;;;;;;;14.17;9.70;;;;;;;1.74;86.88;101695.69;5017639;28;20702;-70
2021/11/10 05:59:01;;;;;;;13.00;7.03;;;;;;;1.72;86.39;101692.22;5022091;28;20202;-69
2021/11/10 06:01:28;;;;;;;7.30;4.93;;;;;;;1.70;86.40;101699.25;5020271;28;20231;-69
2021/11/10 06:03:56;;;;;;;8.17;4.50;;;;;;;1.67;86.45;101691.38;5021995;28;20680;-70
2021/11/10 06:06:27;;;;;;;11.97;6.07;;;;;;;1.64;86.62;101686.16;5022928;28;20591;-69
2021/11/10 06:08:54;;;;;;;6.97;4.67;;;;;;;1.59;86.67;101686.22;5021904;28;20253;-71
2021/11/10 06:11:21;;;;;;;7.20;4.27;;;;;;;1.56;86.99;101682.75;5021387;28;20205;-69
2021/11/10 06:13:48;;;;;;;7.13;5.17;;;;;;;1.53;86.54;101690.66;5020576;28;20566;-69
2021/11/10 06:16:14;;;;;;;9.67;5.60;;;;;;;1.52;86.93;101688.91;5016452;28;20246;-70
2021/11/10 06:18:41;;;;;;;10.67;5.93;;;;;;;1.51;86.95;101698.53;5025056;28;20218;-70
2021/11/10 06:21:07;;;;;;;14.33;7.90;;;;;;;1.49;86.82;101695.06;5022048;28;20214;-69
2021/11/10 06:23:35;;;;;;;13.50;7.60;;;;;;;1.49;86.91;101688.94;5023779;28;20286;-70
2021/11/10 06:26:02;;;;;;;14.17;7.57;;;;;;;1.49;86.74;101688.94;5021826;28;20592;-69
2021/11/10 06:28:28;;;;;;;12.47;6.93;;;;;;;1.48;87.26;101695.06;5024852;28;20214;-69
2021/11/10 06:30:55;;;;;;;17.83;9.43;;;;;;;1.48;87.04;101714.31;5024051;28;20207;-69
2021/11/10 06:33:21;;;;;;;19.17;11.03;;;;;;;1.48;86.86;101731.81;5024106;28;20222;-71
2021/11/10 06:35:48;;;;;;;16.43;8.50;;;;;;;1.47;87.42;101736.19;5024564;28;20692;-71
2021/11/10 06:38:15;;;;;;;16.10;9.60;;;;;;;1.47;87.09;101741.44;5023035;28;20206;-72
2021/11/10 06:40:43;;;;;;;13.17;6.97;;;;;;;1.49;87.51;101730.94;5020515;28;20683;-72
2021/11/10 06:43:10;;;;;;;8.93;5.27;;;;;;;1.46;86.98;101723.09;5023665;28;20731;-72
2021/11/10 06:45:36;;;;;;;9.47;5.27;;;;;;;1.44;87.24;101730.97;5013456;28;20230;-71
2021/11/10 06:48:03;;;;;;;8.93;5.80;;;;;;;1.45;87.36;101729.22;5019537;28;20211;-72
2021/11/10 06:50:30;;;;;;;12.00;6.33;;;;;;;1.47;87.23;101724.84;5019026;28;20564;-71
2021/11/10 06:52:57;;;;;;;12.30;6.07;;;;;;;1.48;87.74;101730.06;5021468;28;20225;-72
2021/11/10 06:55:23;;;;;;;9.33;5.77;;;;;;;1.51;87.91;101744.94;5016241;28;20198;-72
2021/11/10 06:57:51;;;;;;;11.73;6.23;;;;;;;1.52;88.01;101746.69;5017267;28;20206;-72
2021/11/10 07:00:18;;;;;;;10.40;6.20;;;;;;;1.55;87.71;101752.78;5023509;28;20289;-71
2021/11/10 07:02:45;;;;;;;11.77;6.80;;;;;;;1.57;88.02;101751.00;5015939;28;20316;-72
2021/11/10 07:05:12;;;;;;;9.50;6.83;;;;;;;1.60;88.25;101750.13;5021167;28;20226;-71
2021/11/10 07:07:39;;;;;;;12.50;5.43;;;;;;;1.59;87.54;101748.38;5023873;28;20578;-72
2021/11/10 07:10:07;;;;;;;9.97;4.80;;;;;;;1.58;87.93;101763.25;5021713;28;20209;-72
2021/11/10 07:12:33;;;;;;;9.30;5.50;;;;;;;1.59;87.91;101751.88;5020926;28;20227;-71
2021/11/10 07:15:01;;;;;;;11.07;6.33;;;;;;;1.60;87.83;101752.75;5019916;28;20207;-72
2021/11/10 07:17:28;;;;;;;9.13;5.83;;;;;;;1.59;87.64;101753.63;5017122;28;20234;-71
2021/11/10 07:19:55;;;;;;;10.23;6.30;;;;;;;1.61;88.21;101752.69;5018904;28;20320;-72
2021/11/10 07:22:21;;;;;;;10.60;6.23;;;;;;;1.63;88.12;101752.69;5015308;28;20223;-71
2021/11/10 07:24:48;;;;;;;9.43;6.63;;;;;;;1.65;87.71;101758.78;5025167;28;20206;-72
2021/11/10 07:27:15;;;;;;;8.27;6.03;;;;;;;1.65;88.05;101751.78;5023453;28;20578;-70
2021/11/10 07:29:41;;;;;;;11.57;6.40;;;;;;;1.68;87.97;101764.03;5028762;28;20202;-71
2021/11/10 07:32:09;;;;;;;9.47;5.93;;;;;;;1.70;87.93;101759.63;5030982;28;20227;-72
2021/11/10 07:34:36;;;;;;;12.27;6.87;;;;;;;1.72;88.19;101760.50;5029687;28;20207;-72
2021/11/10 07:37:03;;;;;;;12.53;6.67;;;;;;;1.76;88.01;101767.47;5026404;28;20212;-72
2021/11/10 07:39:31;;;;;;;9.60;6.03;;;;;;;1.79;88.41;101767.44;5013504;28;20209;-71
2021/11/10 07:41:58;;;;;;;10.90;6.63;;;;;;;1.83;88.27;101758.63;5013515;28;20318;-71
2021/11/10 07:44:25;;;;;;;9.03;5.60;;;;;;;1.86;88.58;101755.09;5016551;28;20206;-70
2021/11/10 07:46:53;;;;;;;9.53;6.30;;;;;;;1.89;88.33;101769.09;5015620;28;20730;-72
2021/11/10 07:49:23;;;;;;;12.00;6.03;;;;;;;1.91;88.61;101769.06;5023078;28;20223;-72
2021/11/10 07:51:50;;;;;;;9.77;6.30;;;;;;;1.92;88.13;101769.06;5016783;28;20231;-69
2021/11/10 07:54:17;;;;;;;10.83;6.50;;;;;;;1.95;88.48;101762.91;5019899;28;20234;-71
2021/11/10 07:56:43;;;;;;;9.63;6.00;;;;;;;1.97;88.82;101769.84;5018173;28;20203;-69
2021/11/10 07:59:10;;;;;;;8.97;6.20;;;;;;;2.00;88.83;101764.56;5020547;28;20209;-72
2021/11/10 08:01:37;;;;;;;10.70;6.33;;;;;;;2.02;88.59;101761.94;5024447;28;20222;-72
2021/11/10 08:04:04;;;;;;;13.37;6.93;;;;;;;2.02;88.79;101770.69;5017144;28;20261;-71
2021/11/10 08:06:32;;;;;;;9.27;6.17;;;;;;;2.05;88.91;101775.91;5023179;28;20603;-71
2021/11/10 08:08:58;;;;;;;12.63;6.73;;;;;;;2.07;88.79;101768.91;5014399;28;20677;-72
2021/11/10 08:11:25;;;;;;;10.27;6.20;;;;;;;2.10;88.09;101768.00;5009563;28;20214;-72
2021/11/10 08:13:52;;;;;;;10.97;6.77;;;;;;;2.12;88.39;101760.97;5018102;28;20202;-72
2021/11/10 08:16:18;;;;;;;8.47;5.90;;;;;;;2.13;88.29;101762.72;5018876;28;20195;-72
2021/11/10 08:18:45;;;;;;;12.60;6.57;;;;;;;2.15;88.68;101760.91;5016983;28;20217;-71
2021/11/10 08:21:11;;;;;;;10.60;6.70;;;;;;;2.15;88.32;101771.41;5012070;28;20207;-72
2021/11/10 08:23:39;;;;;;;11.73;6.73;;;;;;;2.18;88.37;101771.41;5017504;28;20214;-72
2021/11/10 08:26:06;;;;;;;8.17;6.37;;;;;;;2.20;88.45;101766.13;5008880;28;20223;-72
2021/11/10 08:28:33;;;;;;;12.17;7.27;;;;;;;2.24;88.63;101771.34;5023005;28;20671;-72
2021/11/10 08:30:59;;;;;;;12.10;7.30;;;;;;;2.29;89.03;101777.41;5018424;28;20232;-72
2021/11/10 08:33:26;;;;;;;14.10;8.10;;;;;;;2.33;89.22;101780.91;5013621;28;20230;-72
2021/11/10 08:35:53;;;;;;;12.27;7.33;;;;;;;2.39;89.31;101775.53;5021609;28;20321;-72
2021/11/10 08:38:20;;;;;;;11.00;6.87;;;;;;;2.44;89.15;101776.38;5017418;28;20202;-72
2021/11/10 08:40:49;;;;;;;12.73;6.67;;;;;;;2.49;88.73;101778.94;5016808;28;20199;-71
2021/11/10 08:43:16;;;;;;;12.53;7.03;;;;;;;2.51;89.18;101775.38;5014439;28;20226;-71
2021/11/10 08:45:45;;;;;;;11.90;7.80;;;;;;;2.53;89.15;101770.97;5015599;28;20223;-71
2021/11/10 08:48:13;;;;;;;13.13;7.20;;;;;;;2.54;89.01;101764.84;5016566;28;20222;-71
2021/11/10 08:50:42;;;;;;;12.87;7.40;;;;;;;2.57;88.70;101764.81;5016428;28;20210;-71
2021/11/10 08:53:10;;;;;;;15.30;8.43;;;;;;;2.63;89.46;101761.22;5015402;28;20245;-71
2021/11/10 08:55:37;;;;;;;14.87;8.07;;;;;;;2.68;88.88;101757.66;5013346;28;20203;-69
2021/11/10 08:58:05;;;;;;;15.17;8.33;;;;;;;2.74;89.70;101762.81;5012845;28;20225;-70
2021/11/10 09:00:35;;;;;;;14.33;7.63;;;;;;;2.79;89.22;101763.63;5018028;28;20210;-71
2021/11/10 09:03:02;;;;;;;13.73;7.80;;;;;;;2.84;89.03;101760.09;5019622;28;20237;-72
2021/11/10 09:05:29;;;;;;;15.20;7.80;;;;;;;2.92;89.23;101760.81;5018371;28;20202;-68
2021/11/10 09:07:55;;;;;;;12.50;7.90;;;;;;;3.04;90.39;101760.66;5016458;28;20209;-70
2021/11/10 09:10:23;;;;;;;11.33;7.30;;;;;;;3.15;90.44;101756.09;5015383;28;20230;-71
2021/11/10 09:12:51;;;;;;;13.47;8.30;;;;;;;3.29;90.53;101759.38;5018790;28;20226;-71
2021/11/10 09:15:20;;;;;;;13.73;8.40;;;;;;;3.43;90.68;101760.03;5018887;28;20243;-70
2021/11/10 09:17:48;;;;;;;12.80;7.10;;;;;;;3.59;91.43;101759.78;5015682;28;20214;-71
2021/11/10 09:20:18;;;;;;;10.37;7.27;;;;;;;3.73;91.30;101747.25;5013650;28;20199;-68
2021/11/10 09:22:44;;;;;;;13.13;7.27;;;;;;;3.87;91.12;101733.81;5016547;28;20345;-69
2021/11/10 09:25:13;;;;;;;11.03;7.03;;;;;;;4.01;91.17;101743.19;5017225;28;20664;-70
2021/11/10 09:27:40;;;;;;;9.80;7.13;;;;;;;4.14;91.80;101747.34;5019662;28;20229;-69
2021/11/10 09:30:11;;;;;;;10.93;7.07;;;;;;;4.26;91.34;101751.53;5017835;28;20225;-70
2021/11/10 09:32:39;;;;;;;12.73;6.83;;;;;;;4.36;91.12;101749.56;5018330;28;20249;-71
2021/11/10 09:35:09;;;;;;;12.57;7.43;;;;;;;4.45;91.17;101755.53;5015538;28;20213;-72
2021/11/10 09:37:36;;;;;;;9.77;6.93;;;;;;;4.56;91.24;101752.66;5023934;28;20194;-71
2021/11/10 09:40:05;;;;;;;8.93;6.37;;;;;;;4.69;91.47;101759.41;5022266;28;20253;-72
2021/11/10 09:42:32;;;;;;;10.97;6.70;;;;;;;4.80;91.07;101754.78;5029244;28;20322;-72
2021/11/10 09:45:00;;;;;;;10.47;6.73;;;;;;;4.89;91.29;101757.19;5025057;28;20202;-68
2021/11/10 09:47:27;;;;;;;14.37;7.50;;;;;;;5.00;90.94;101750.81;5022314;28;20233;-70
2021/11/10 09:49:55;;;;;;;8.93;6.77;;;;;;;5.09;90.83;101747.97;5023677;28;20225;-69
2021/11/10 09:52:22;;;;;;;9.07;7.10;;;;;;;5.16;91.38;101768.91;5027378;28;20827;-70
2021/11/10 09:54:48;;;;;;;14.70;7.20;;;;;;;5.25;90.99;101757.25;5022680;28;20207;-71
2021/11/10 09:57:16;;;;;;;9.40;6.97;;;;;;;5.34;90.99;101764.97;5024674;28;20198;-71
2021/11/10 09:59:43;;;;;;;9.40;6.90;;;;;;;5.43;90.60;101771.78;5020949;28;20213;-69
2021/11/10 10:02:12;;;;;;;10.20;7.03;;;;;;;5.49;90.63;101764.59;5024246;28;20230;-69
2021/11/10 10:04:40;;;;;;;15.77;8.40;;;;;;;5.56;90.66;101765.28;5024051;28;20252;-70
2021/11/10 10:07:09;;;;;;;12.70;8.17;;;;;;;5.65;90.26;101753.63;5021391;28;20227;-71
2021/11/10 10:09:36;;;;;;;12.07;7.43;;;;;;;5.71;90.52;101756.13;5019568;28;20203;-71
2021/11/10 10:12:03;;;;;;;10.73;6.67;;;;;;;5.77;90.11;101751.53;5021192;28;20241;-71
2021/11/10 10:14:29;;;;;;;9.93;6.83;;;;;;;5.82;90.08;101754.94;5022323;28;20198;-72
2021/11/10 10:16:56;;;;;;;10.17;6.83;;;;;;;5.89;89.96;101760.97;5020898;28;20206;-70
2021/11/10 10:19:23;;;;;;;11.63;7.20;;;;;;;5.94;90.17;101759.06;5022789;28;20211;-70
2021/11/10 10:21:59;;;;;;;11.30;7.37;;;;;;;6.01;89.65;101759.78;5021761;28;20230;-70
2021/11/10 10:24:27;;;;;;;10.07;7.03;;;;;;;6.05;89.68;101764.09;5022500;28;20213;-71
2021/11/10 10:26:54;;;;;;;11.27;7.03;;;;;;;6.08;89.43;101756.94;5015589;28;20222;-70
2021/11/10 10:29:21;;;;;;;13.47;6.93;;;;;;;6.12;89.38;101745.34;5023415;28;20305;-69
2021/11/10 10:31:47;;;;;;;10.03;7.37;;;;;;;6.17;89.26;101747.88;5019455;28;20226;-70
2021/11/10 10:34:17;;;;;;;9.00;6.63;;;;;;;6.23;89.49;101745.06;5014542;28;20218;-71
2021/11/10 10:36:46;;;;;;;11.53;7.30;;;;;;;6.28;89.27;101746.66;5013433;28;20742;-69
2021/11/10 10:39:16;;;;;;;11.57;7.23;;;;;;;6.34;89.30;101747.41;5020901;28;20581;-71
2021/11/10 10:41:46;;;;;;;15.33;7.47;;;;;;;6.39;89.41;101749.00;5018424;28;20260;-69
2021/11/10 10:44:23;;;;;;;9.40;6.57;;;;;;;6.45;89.05;101742.69;5019890;28;20598;-70
2021/11/10 10:46:56;;;;;;;10.27;6.43;;;;;;;6.49;89.15;101739.88;5016331;28;20222;-71
2021/11/10 10:49:30;;;;;;;8.57;6.93;;;;;;;6.54;88.91;101748.56;5023617;28;20257;-68
2021/11/10 10:52:12;;;;;;;11.40;7.10;;;;;;;6.57;88.74;101744.97;5014561;28;20222;-71
2021/11/10 10:54:39;;;;;;;10.50;7.00;;;;;;;6.61;88.78;101743.97;5015238;28;20672;-71
2021/11/10 10:57:09;;;;;;;9.13;6.63;;;;;;;6.65;88.25;101732.34;5017215;28;20724;-70
2021/11/10 10:59:35;;;;;;;9.43;6.77;;;;;;;6.71;88.69;101737.47;5022224;28;20661;-71
2021/11/10 11:02:06;;;;;;;10.83;7.23;;;;;;;6.76;88.20;101732.91;5020215;28;20576;-69
2021/11/10 11:04:35;;;;;;;9.13;6.30;;;;;;;6.81;87.74;101714.22;5016980;28;20218;-70
2021/11/10 11:07:04;;;;;;;8.47;6.23;;;;;;;6.88;88.29;101716.66;5017935;28;20222;-70
2021/11/10 11:09:33;;;;;;;11.60;5.93;;;;;;;6.95;87.95;101712.91;5021509;28;20203;-71
2021/11/10 11:12:03;;;;;;;8.70;5.70;;;;;;;7.03;87.82;101712.63;5020609;28;20225;-71
2021/11/10 11:14:42;;;;;;;10.13;6.17;;;;;;;7.09;88.06;101715.09;5019370;28;20199;-73
2021/11/10 11:17:25;;;;;;;8.27;5.70;;;;;;;7.16;88.06;101711.34;5022339;28;20746;-72
2021/11/10 11:19:56;;;;;;;8.60;5.37;;;;;;;7.24;87.74;101701.34;5020585;28;20207;-73
2021/11/10 11:22:23;;;;;;;11.47;5.93;;;;;;;7.30;87.99;101700.31;5021111;28;20246;-73
2021/11/10 11:24:50;;;;;;;8.97;5.33;;;;;;;7.37;87.71;101701.81;5025360;28;20696;-73
2021/11/10 11:27:21;;;;;;;8.33;5.03;;;;;;;7.43;87.01;101701.63;5023098;28;20223;-73
2021/11/10 11:30:00;;;;;;;5.40;4.43;;;;;;;7.48;86.83;101704.97;5023749;28;20298;-72